Time;durP1;ratioP1;P1;durP2;ratioP2;P2;SDS_P1;SDS_P2;PMS_P1;PMS_P2;Temp;Humidity;BMP_temperature;BMP_pressure;BME280_temperature;BME280_humidity;BME280_pressure;Samples;Min_cycle;Max_cycle;Signal;HPM_P1;HPM_P2
2023/06/29 00:01:29;;;;;;;7.60;3.13;;;;;;;20.27;100.00;96308.28;5091801;28;20027;-83
2023/06/29 00:03:54;;;;;;;6.00;2.83;;;;;;;20.20;100.00;96308.31;5118250;27;20084;-83
2023/06/29 00:06:20;;;;;;;6.67;3.00;;;;;;;20.22;100.00;96311.59;5086629;27;20476;-83
2023/06/29 00:08:48;;;;;;;7.63;2.90;;;;;;;20.32;100.00;96305.78;5115923;27;20028;-83
2023/06/29 00:11:13;;;;;;;7.63;2.80;;;;;;;20.18;100.00;96312.25;5088030;28;20045;-84
2023/06/29 00:13:39;;;;;;;6.47;3.00;;;;;;;19.81;100.00;96311.28;5083462;28;20040;-84
2023/06/29 00:16:04;;;;;;;4.67;2.33;;;;;;;20.07;100.00;96312.94;5099383;28;20026;-83
2023/06/29 00:18:30;;;;;;;8.30;2.90;;;;;;;20.14;100.00;96309.19;5084077;28;20073;-83
2023/06/29 00:20:57;;;;;;;8.73;2.67;;;;;;;20.16;100.00;96301.78;5099122;28;20023;-83
2023/06/29 00:23:24;;;;;;;5.57;2.47;;;;;;;20.35;100.00;96305.31;5113371;28;20080;-83
2023/06/29 00:25:52;;;;;;;7.93;3.00;;;;;;;20.24;100.00;96300.69;5103161;28;20488;-84
2023/06/29 00:28:18;;;;;;;7.90;2.90;;;;;;;20.14;100.00;96295.84;5108689;28;20024;-83
2023/06/29 00:30:43;;;;;;;7.17;3.03;;;;;;;20.01;100.00;96299.41;5104527;28;20053;-83
2023/06/29 00:33:09;;;;;;;5.80;3.13;;;;;;;20.09;100.00;96301.03;5120011;28;20027;-84
2023/06/29 00:35:35;;;;;;;6.17;2.43;;;;;;;19.90;100.00;96292.13;5074448;28;20019;-83
2023/06/29 00:38:00;;;;;;;6.00;2.90;;;;;;;19.92;100.00;96297.22;5074407;28;20028;-82
2023/06/29 00:40:26;;;;;;;6.30;2.70;;;;;;;19.87;100.00;96284.53;5091270;28;20023;-83
2023/06/29 00:42:52;;;;;;;5.77;2.80;;;;;;;19.96;100.00;96285.13;5098329;28;20015;-83
2023/06/29 00:45:18;;;;;;;5.70;2.47;;;;;;;19.94;100.00;96285.31;5102158;28;20205;-83
2023/06/29 00:47:44;;;;;;;4.20;2.23;;;;;;;19.45;100.00;96292.19;5099990;28;20030;-84
2023/06/29 00:50:10;;;;;;;6.30;2.33;;;;;;;19.75;100.00;96283.59;5094949;28;20027;-84
2023/06/29 00:52:36;;;;;;;7.43;2.30;;;;;;;19.59;100.00;96289.44;5083878;28;20118;-83
2023/06/29 00:55:03;;;;;;;4.10;2.30;;;;;;;19.59;100.00;96292.09;5094819;28;20510;-83
2023/06/29 00:57:29;;;;;;;4.93;2.47;;;;;;;19.58;100.00;96290.44;5096164;28;20060;-83
2023/06/29 00:59:59;;;;;;;4.63;2.70;;;;;;;19.46;100.00;96293.81;5108756;28;20034;-83
2023/06/29 01:02:25;;;;;;;4.13;2.30;;;;;;;19.19;100.00;96292.31;5096892;28;20054;-83
2023/06/29 01:04:51;;;;;;;6.77;2.70;;;;;;;19.29;100.00;96290.81;5087063;28;20228;-83
2023/06/29 01:07:41;;;;;;;7.23;2.67;;;;;;;18.85;100.00;96286.28;5079740;28;20110;-82
2023/06/29 01:10:10;;;;;;;6.23;2.77;;;;;;;19.01;100.00;96288.50;5078518;28;20047;-83
2023/06/29 01:12:38;;;;;;;4.00;2.10;;;;;;;19.00;100.00;96283.34;5087211;28;20035;-84
2023/06/29 01:15:05;;;;;;;4.73;2.80;;;;;;;19.05;100.00;96281.69;5111710;28;20425;-83
2023/06/29 01:17:34;;;;;;;4.67;2.33;;;;;;;19.03;100.00;96283.75;5079499;28;20062;-83
2023/06/29 01:20:01;;;;;;;6.57;2.97;;;;;;;19.09;100.00;96274.09;5104477;28;20503;-83
2023/06/29 01:22:35;;;;;;;6.00;2.80;;;;;;;19.08;100.00;96275.94;5076252;28;20051;-83
2023/06/29 01:25:01;;;;;;;7.93;2.80;;;;;;;19.16;100.00;96276.72;5081240;28;20623;-83
2023/06/29 01:27:43;;;;;;;5.07;2.83;;;;;;;19.09;100.00;96266.09;5097997;27;20034;-83
2023/06/29 01:30:10;;;;;;;6.17;2.60;;;;;;;18.99;100.00;96268.41;5089093;27;20072;-83
2023/06/29 01:32:36;;;;;;;5.13;2.63;;;;;;;19.03;100.00;96267.75;5098485;28;20034;-83
2023/06/29 01:35:03;;;;;;;6.47;3.00;;;;;;;19.01;100.00;96261.84;5096260;27;20027;-83
2023/06/29 01:37:39;;;;;;;6.30;2.87;;;;;;;19.16;100.00;96260.75;5091193;28;20116;-83
2023/06/29 01:40:08;;;;;;;5.67;3.17;;;;;;;18.99;100.00;96260.41;5092508;28;20028;-84
2023/06/29 01:42:35;;;;;;;6.23;3.00;;;;;;;19.10;100.00;96257.06;5097417;28;20107;-84
2023/06/29 01:45:04;;;;;;;5.73;3.00;;;;;;;19.13;100.00;96263.81;5101839;27;20084;-84
2023/06/29 01:47:30;;;;;;;5.93;3.60;;;;;;;19.28;100.00;96264.34;5066424;28;20098;-83
2023/06/29 01:49:55;;;;;;;6.80;3.40;;;;;;;18.98;100.00;96259.59;5074437;28;20384;-83
2023/06/29 01:52:22;;;;;;;7.93;3.67;;;;;;;18.71;100.00;96258.84;5087805;27;20038;-83
2023/06/29 01:54:47;;;;;;;4.97;2.87;;;;;;;18.78;100.00;96262.31;5102716;28;20023;-83
2023/06/29 01:57:13;;;;;;;5.13;2.87;;;;;;;18.87;100.00;96257.56;5090017;28;20035;-83
2023/06/29 01:59:40;;;;;;;5.80;2.93;;;;;;;19.01;100.00;96255.66;5085731;28;20035;-83
2023/06/29 02:02:06;;;;;;;5.90;2.97;;;;;;;19.04;100.00;96253.38;5100555;27;20022;-83
2023/06/29 02:04:32;;;;;;;6.10;3.53;;;;;;;19.13;100.00;96248.66;5089022;27;20018;-83
2023/06/29 02:06:58;;;;;;;5.10;3.10;;;;;;;18.94;100.00;96253.03;5080180;28;20023;-83
2023/06/29 02:09:24;;;;;;;7.43;3.07;;;;;;;19.11;100.00;96247.22;5087352;27;20019;-83
2023/06/29 02:11:49;;;;;;;6.87;3.30;;;;;;;18.92;100.00;96248.97;5111514;27;20035;-83
2023/06/29 02:14:17;;;;;;;6.17;3.83;;;;;;;18.98;100.00;96242.75;5103582;27;20058;-83
2023/06/29 02:16:46;;;;;;;5.40;3.43;;;;;;;18.84;100.00;96247.31;5081011;28;20081;-82
2023/06/29 02:19:13;;;;;;;6.00;3.43;;;;;;;18.70;100.00;96248.38;5074070;28;20035;-83
2023/06/29 02:21:39;;;;;;;7.20;4.33;;;;;;;18.79;100.00;96249.81;5079206;28;20042;-83
2023/06/29 02:24:05;;;;;;;6.67;3.50;;;;;;;18.51;100.00;96250.06;5077287;27;20031;-83
2023/06/29 02:26:30;;;;;;;5.87;3.60;;;;;;;18.82;100.00;96252.06;5091966;28;20397;-83
2023/06/29 02:28:56;;;;;;;5.57;3.90;;;;;;;19.02;100.00;96244.00;5068058;28;20024;-83
2023/06/29 02:31:22;;;;;;;6.60;3.73;;;;;;;19.03;100.00;96235.78;5095862;27;20031;-83
2023/06/29 02:33:54;;;;;;;6.47;3.47;;;;;;;18.65;100.00;96234.88;5094566;28;20023;-82
2023/06/29 02:36:27;;;;;;;5.93;3.60;;;;;;;18.56;100.00;96234.28;5077589;27;20096;-83
2023/06/29 02:38:53;;;;;;;5.32;3.47;;;;;;;18.37;100.00;96234.09;5080117;28;20050;-84
2023/06/29 02:41:20;;;;;;;6.17;3.80;;;;;;;18.54;100.00;96223.84;5086933;27;20042;-83
2023/06/29 02:43:45;;;;;;;6.40;3.87;;;;;;;18.74;100.00;96220.31;5092645;28;20389;-83
2023/06/29 02:46:11;;;;;;;7.00;2.97;;;;;;;18.65;100.00;96224.22;5100384;28;20453;-83
2023/06/29 02:48:37;;;;;;;5.17;3.13;;;;;;;18.45;100.00;96233.09;5076451;27;20027;-82
2023/06/29 02:51:03;;;;;;;5.60;3.20;;;;;;;18.24;100.00;96226.16;5106946;28;20031;-83
2023/06/29 02:53:49;;;;;;;6.27;3.50;;;;;;;18.41;100.00;96231.88;5093864;28;20132;-83
2023/06/29 02:56:14;;;;;;;5.43;3.57;;;;;;;18.33;100.00;96226.75;5083963;27;20087;-83
2023/06/29 02:58:40;;;;;;;5.80;3.47;;;;;;;18.42;100.00;96225.50;5075077;27;20488;-83
2023/06/29 03:01:09;;;;;;;5.37;3.40;;;;;;;18.38;100.00;96224.28;5078523;28;20031;-83
2023/06/29 03:03:35;;;;;;;8.20;4.00;;;;;;;18.45;100.00;96229.59;5090654;27;20487;-83
2023/06/29 03:06:05;;;;;;;7.83;4.37;;;;;;;18.02;100.00;96222.91;5094178;28;20047;-82
2023/06/29 03:08:30;;;;;;;6.10;3.73;;;;;;;18.38;100.00;96219.78;5088761;28;20011;-83
2023/06/29 03:10:57;;;;;;;6.80;3.93;;;;;;;18.39;100.00;96225.94;5075987;28;20106;-82
2023/06/29 03:13:22;;;;;;;6.67;4.20;;;;;;;18.47;100.00;96215.03;5087548;27;20030;-83
2023/06/29 03:15:48;;;;;;;6.53;3.40;;;;;;;18.50;100.00;96211.97;5081014;28;20027;-83
2023/06/29 03:18:14;;;;;;;7.37;4.00;;;;;;;18.50;100.00;96211.97;5116543;27;20107;-82
2023/06/29 03:20:39;;;;;;;7.80;3.50;;;;;;;18.29;100.00;96213.03;5082208;28;20023;-83
2023/06/29 03:23:05;;;;;;;5.80;3.40;;;;;;;18.21;100.00;96212.44;5082787;27;20568;-82
2023/06/29 03:25:30;;;;;;;5.47;3.33;;;;;;;18.47;100.00;96204.38;5091531;28;20027;-83
2023/06/29 03:27:56;;;;;;;5.47;3.57;;;;;;;18.40;100.00;96211.56;5089590;28;20384;-82
2023/06/29 03:30:22;;;;;;;6.83;4.10;;;;;;;18.29;100.00;96218.38;5078411;28;20496;-83
2023/06/29 03:32:47;;;;;;;5.77;3.50;;;;;;;17.93;100.00;96216.16;5103965;28;20031;-82
2023/06/29 03:35:13;;;;;;;7.63;3.30;;;;;;;17.39;100.00;96211.81;5098620;27;20023;-83
2023/06/29 03:37:38;;;;;;;8.63;3.80;;;;;;;17.88;100.00;96213.31;5079004;27;20019;-83
2023/06/29 03:40:05;;;;;;;9.20;4.30;;;;;;;17.90;100.00;96216.56;5096684;28;20016;-83
2023/06/29 03:42:30;;;;;;;6.07;3.87;;;;;;;18.14;100.00;96210.63;5084344;27;20048;-82
2023/06/29 03:44:56;;;;;;;7.40;4.00;;;;;;;18.32;100.00;96211.81;5100668;28;20028;-82
2023/06/29 03:47:21;;;;;;;6.73;4.17;;;;;;;18.13;100.00;96214.28;5076541;28;20023;-82
2023/06/29 03:49:47;;;;;;;8.90;3.90;;;;;;;18.36;100.00;96203.19;5066988;28;20016;-83
2023/06/29 03:52:12;;;;;;;7.03;3.47;;;;;;;18.46;100.00;96202.75;5094115;27;20032;-83
2023/06/29 03:54:38;;;;;;;8.67;3.77;;;;;;;18.35;100.00;96212.22;5127839;27;20019;-82
2023/06/29 03:57:04;;;;;;;5.53;3.50;;;;;;;18.35;100.00;96206.06;5085527;27;20039;-83
2023/06/29 03:59:30;;;;;;;5.67;3.40;;;;;;;18.33;100.00;96197.47;5080297;27;20487;-83
2023/06/29 04:01:55;;;;;;;5.83;3.03;;;;;;;18.44;100.00;96199.47;5078813;28;20012;-82
2023/06/29 04:04:21;;;;;;;6.73;3.60;;;;;;;18.47;100.00;96199.06;5083263;28;20043;-83
2023/06/29 04:06:46;;;;;;;4.83;2.83;;;;;;;18.47;100.00;96201.72;5092149;28;20023;-83
2023/06/29 04:09:12;;;;;;;5.50;3.50;;;;;;;18.61;100.00;96203.34;5092041;28;20035;-83
2023/06/29 04:11:39;;;;;;;6.33;3.00;;;;;;;18.65;100.00;96201.06;5082621;28;20108;-82
2023/06/29 04:14:04;;;;;;;6.23;3.30;;;;;;;18.76;100.00;96196.94;5090576;28;20677;-82
2023/06/29 04:16:30;;;;;;;4.33;2.73;;;;;;;18.87;100.00;96196.28;5079012;28;20046;-80
2023/06/29 04:18:55;;;;;;;5.23;3.27;;;;;;;18.84;100.00;96199.38;5075943;28;20038;-81
2023/06/29 04:21:21;;;;;;;9.20;3.30;;;;;;;18.78;100.00;96205.56;5091051;28;20023;-83
2023/06/29 04:23:46;;;;;;;6.10;3.43;;;;;;;18.83;100.00;96206.53;5071851;28;20023;-83
2023/06/29 04:26:13;;;;;;;5.40;3.43;;;;;;;18.71;100.00;96207.38;5110690;28;20126;-83
2023/06/29 04:28:41;;;;;;;5.47;3.20;;;;;;;18.76;100.00;96208.44;5086210;28;20028;-83
2023/06/29 04:31:06;;;;;;;5.93;3.50;;;;;;;18.85;100.00;96201.03;5088602;28;20118;-83
2023/06/29 04:33:32;;;;;;;8.07;3.40;;;;;;;18.91;100.00;96208.13;5105047;28;20031;-82
2023/06/29 04:35:57;;;;;;;6.53;2.97;;;;;;;19.03;100.00;96200.31;5103411;28;20020;-84
2023/06/29 04:38:25;;;;;;;4.90;3.63;;;;;;;19.10;100.00;96198.41;5085364;28;20031;-84
2023/06/29 04:41:03;;;;;;;6.93;3.00;;;;;;;18.90;100.00;96203.84;5075431;28;20020;-83
2023/06/29 04:43:29;;;;;;;6.80;3.37;;;;;;;18.83;100.00;96203.06;5071925;28;20065;-83
2023/06/29 04:45:55;;;;;;;6.50;3.00;;;;;;;18.91;100.00;96199.34;5086944;28;20402;-83
2023/06/29 04:48:28;;;;;;;5.70;3.60;;;;;;;19.25;100.00;96195.47;5109656;28;20417;-84
2023/06/29 04:51:07;;;;;;;6.63;3.40;;;;;;;19.52;100.00;96204.13;5097577;28;20038;-84
2023/06/29 04:53:34;;;;;;;6.47;3.00;;;;;;;19.58;100.00;96202.41;5096111;28;20038;-84
2023/06/29 04:56:03;;;;;;;7.27;3.33;;;;;;;19.73;100.00;96187.78;5101042;28;20877;-84
2023/06/29 04:58:29;;;;;;;5.43;3.00;;;;;;;19.50;100.00;96196.31;5064616;28;20024;-84
2023/06/29 05:00:55;;;;;;;6.83;3.23;;;;;;;19.98;100.00;96187.75;5114728;28;20034;-85
2023/06/29 05:03:20;;;;;;;6.53;3.30;;;;;;;19.67;100.00;96195.81;5087190;27;20035;-85
2023/06/29 05:05:46;;;;;;;6.17;3.67;;;;;;;19.82;100.00;96190.16;5089726;28;20023;-86
2023/06/29 05:08:12;;;;;;;6.33;3.07;;;;;;;19.70;100.00;96187.38;5089335;27;20023;-84
2023/06/29 05:10:42;;;;;;;5.80;3.70;;;;;;;20.34;100.00;96183.50;5086346;28;20035;-84
2023/06/29 05:13:08;;;;;;;7.90;3.60;;;;;;;20.23;100.00;96185.06;5093863;28;20076;-85
2023/06/29 05:15:33;;;;;;;4.53;3.10;;;;;;;20.34;100.00;96186.16;5098274;27;20770;-85
2023/06/29 05:17:59;;;;;;;5.93;3.23;;;;;;;20.83;100.00;96180.94;5102454;27;20024;-84
2023/06/29 05:20:24;;;;;;;4.37;3.07;;;;;;;20.80;100.00;96190.19;5081675;28;20023;-84
2023/06/29 05:22:50;;;;;;;5.40;3.00;;;;;;;21.33;100.00;96180.66;5101902;28;20027;-84
2023/06/29 05:25:16;;;;;;;5.23;3.07;;;;;;;21.13;100.00;96180.94;5093266;27;20027;-84
2023/06/29 05:27:42;;;;;;;7.00;3.00;;;;;;;21.27;100.00;96176.22;5080074;28;20088;-85
2023/06/29 05:30:08;;;;;;;4.83;3.00;;;;;;;21.37;100.00;96174.66;5096437;28;20035;-85
2023/06/29 05:32:42;;;;;;;7.43;3.03;;;;;;;21.12;100.00;96176.63;5093158;27;20015;-85
2023/06/29 05:35:08;;;;;;;5.87;3.33;;;;;;;20.87;100.00;96182.91;5082158;27;20020;-86
2023/06/29 05:37:33;;;;;;;8.30;3.03;;;;;;;21.36;100.00;96166.84;5098394;27;20019;-80
2023/06/29 05:39:59;;;;;;;6.03;3.17;;;;;;;21.95;100.00;96177.66;5131589;27;20030;-84
2023/06/29 05:42:24;;;;;;;5.40;2.97;;;;;;;22.49;100.00;96172.97;5108062;27;20019;-83
2023/06/29 05:44:50;;;;;;;7.30;2.80;;;;;;;22.69;100.00;96168.03;5119700;27;20028;-84
2023/06/29 05:47:15;;;;;;;5.85;2.72;;;;;;;23.14;100.00;96170.03;5094171;28;20031;-84
2023/06/29 05:49:42;;;;;;;6.38;3.67;;;;;;;23.37;100.00;96163.69;5116463;27;20019;-84
2023/06/29 05:52:08;;;;;;;5.88;2.97;;;;;;;23.69;100.00;96164.03;5103225;27;20016;-84
2023/06/29 05:54:33;;;;;;;6.60;2.70;;;;;;;23.78;100.00;96160.94;5111898;28;20080;-83
2023/06/29 05:56:59;;;;;;;6.75;3.08;;;;;;;23.90;100.00;96161.66;5131073;27;20023;-85
2023/06/29 05:59:24;;;;;;;7.18;3.28;;;;;;;24.29;98.29;96161.69;5106671;27;20027;-84
2023/06/29 06:01:50;;;;;;;4.30;2.80;;;;;;;24.60;97.25;96163.75;5085390;28;20038;-85
2023/06/29 06:04:16;;;;;;;7.35;3.03;;;;;;;25.09;92.49;96162.97;5100654;27;20035;-85
2023/06/29 06:06:42;;;;;;;5.22;3.05;;;;;;;24.92;93.94;96168.44;5093954;27;20076;-84
2023/06/29 06:09:07;;;;;;;5.50;2.53;;;;;;;25.47;91.01;96164.72;5112342;27;20476;-85
2023/06/29 06:11:33;;;;;;;6.93;3.03;;;;;;;25.70;87.48;96162.78;5123386;27;20037;-83
2023/06/29 06:13:58;;;;;;;5.47;3.00;;;;;;;25.02;92.50;96170.44;5130128;27;20079;-83
2023/06/29 06:16:24;;;;;;;4.43;2.60;;;;;;;25.80;85.86;96162.88;5122672;27;20090;-84
2023/06/29 06:18:50;;;;;;;5.30;2.53;;;;;;;26.43;80.60;96163.84;5095724;28;20059;-85
2023/06/29 06:21:15;;;;;;;5.45;2.72;;;;;;;26.62;79.49;96166.13;5103567;28;21566;-85
2023/06/29 06:23:41;;;;;;;6.30;3.08;;;;;;;27.06;77.96;96163.03;5095658;28;20414;-84
2023/06/29 06:26:07;;;;;;;5.22;2.33;;;;;;;27.04;76.43;96166.03;5109727;27;20015;-84
2023/06/29 06:28:33;;;;;;;7.13;2.47;;;;;;;27.57;72.53;96163.19;5102727;28;20028;-85
2023/06/29 06:30:58;;;;;;;5.38;2.42;;;;;;;27.44;70.14;96159.94;5085848;27;20027;-85
2023/06/29 06:33:24;;;;;;;7.10;2.67;;;;;;;28.42;60.42;96158.84;5086503;28;20392;-84
2023/06/29 06:35:49;;;;;;;5.53;2.42;;;;;;;28.34;64.10;96150.47;5073127;28;20028;-85
2023/06/29 06:38:15;;;;;;;6.47;2.40;;;;;;;28.64;62.02;96160.41;5071672;28;20386;-85
2023/06/29 06:40:41;;;;;;;3.90;2.05;;;;;;;28.81;60.14;96158.16;5100869;27;20102;-85
2023/06/29 06:43:06;;;;;;;5.72;2.40;;;;;;;29.70;55.93;96154.72;5097442;27;20019;-84
2023/06/29 06:45:32;;;;;;;7.75;2.83;;;;;;;29.93;53.33;96148.56;5103540;28;20606;-84
2023/06/29 06:47:57;;;;;;;4.68;2.13;;;;;;;30.49;49.42;96160.78;5074715;28;20059;-84
2023/06/29 06:50:23;;;;;;;5.13;2.58;;;;;;;31.09;46.25;96161.19;5095091;28;20064;-85
2023/06/29 06:52:48;;;;;;;7.00;2.10;;;;;;;31.04;46.70;96155.00;5100598;27;20052;-85
2023/06/29 06:55:14;;;;;;;5.30;2.10;;;;;;;30.86;44.38;96156.59;5089440;27;20026;-85
2023/06/29 06:57:40;;;;;;;6.47;2.15;;;;;;;31.63;43.20;96154.44;5085864;28;20024;-85
2023/06/29 07:00:10;;;;;;;5.57;2.72;;;;;;;32.17;40.19;96144.88;5093862;27;20031;-85
2023/06/29 07:02:36;;;;;;;5.47;2.60;;;;;;;31.55;39.82;96149.66;5090877;28;20077;-85
2023/06/29 07:05:01;;;;;;;6.40;2.80;;;;;;;31.04;39.35;96136.00;5099737;27;20027;-85
2023/06/29 07:07:27;;;;;;;8.52;2.78;;;;;;;31.81;38.38;96130.25;5103212;27;20023;-85
2023/06/29 07:09:52;;;;;;;7.55;2.95;;;;;;;32.21;37.50;96139.63;5078197;28;20035;-85
2023/06/29 07:12:18;;;;;;;4.90;2.85;;;;;;;32.44;36.01;96137.88;5086303;27;20028;-86
2023/06/29 07:14:45;;;;;;;6.13;2.75;;;;;;;31.47;37.96;96136.75;5086894;28;20028;-85
2023/06/29 07:17:11;;;;;;;4.57;2.40;;;;;;;32.03;36.21;96135.88;5092826;27;20022;-85
2023/06/29 07:19:37;;;;;;;5.20;2.10;;;;;;;32.97;34.58;96123.75;5079311;27;20022;-84
2023/06/29 07:22:02;;;;;;;5.72;2.35;;;;;;;31.57;35.59;96124.91;5090651;28;20103;-85
2023/06/29 07:24:28;;;;;;;5.20;2.42;;;;;;;32.94;34.11;96127.06;5082315;28;20024;-85
2023/06/29 07:26:54;;;;;;;3.45;2.03;;;;;;;32.39;34.71;96125.16;5082692;28;20026;-85
2023/06/29 07:29:19;;;;;;;4.38;2.25;;;;;;;32.73;33.45;96126.69;5102083;27;20023;-85
2023/06/29 07:31:46;;;;;;;9.00;2.40;;;;;;;33.14;32.70;96125.84;5101800;28;20516;-85
2023/06/29 07:34:11;;;;;;;5.53;2.00;;;;;;;33.51;32.82;96122.03;5111392;27;20030;-85
2023/06/29 07:36:37;;;;;;;3.13;1.58;;;;;;;33.49;31.85;96124.25;5087057;27;20031;-85
2023/06/29 07:39:03;;;;;;;5.15;2.17;;;;;;;32.69;32.74;96133.03;5091694;28;20095;-85
2023/06/29 07:41:28;;;;;;;3.25;1.95;;;;;;;32.35;32.58;96123.31;5079163;27;20475;-84
2023/06/29 07:43:56;;;;;;;5.28;2.08;;;;;;;33.12;31.41;96119.09;5097535;28;20023;-84
2023/06/29 07:46:22;;;;;;;4.30;1.70;;;;;;;30.65;34.58;96132.38;5104438;28;20030;-84
2023/06/29 07:48:49;;;;;;;6.55;2.58;;;;;;;32.12;32.75;96120.47;5090948;28;20096;-85
2023/06/29 07:51:15;;;;;;;4.70;1.70;;;;;;;32.37;32.56;96126.56;5118931;27;20042;-84
2023/06/29 07:53:42;;;;;;;11.90;2.60;;;;;;;31.54;33.05;96128.22;5075722;28;20814;-85
2023/06/29 07:56:13;;;;;;;4.35;1.60;;;;;;;31.12;34.30;96128.00;5076879;28;20020;-85
2023/06/29 07:58:38;;;;;;;3.58;1.52;;;;;;;31.99;32.06;96123.97;5112866;27;20396;-84
2023/06/29 08:01:04;;;;;;;2.28;1.33;;;;;;;32.06;32.40;96127.13;5118904;27;20076;-84
2023/06/29 08:03:29;;;;;;;4.00;1.90;;;;;;;31.70;33.07;96118.72;5079851;28;20027;-85
2023/06/29 08:05:56;;;;;;;15.02;2.55;;;;;;;31.58;33.62;96124.63;5110059;27;20465;-84
2023/06/29 08:08:21;;;;;;;3.72;1.67;;;;;;;32.34;32.36;96110.81;5092360;28;20030;-84
2023/06/29 08:10:48;;;;;;;4.85;1.95;;;;;;;32.89;31.65;96108.09;5093418;28;20401;-85
2023/06/29 08:13:15;;;;;;;2.95;1.60;;;;;;;32.60;32.36;96103.81;5090863;27;20049;-85
2023/06/29 08:15:40;;;;;;;3.30;1.73;;;;;;;33.04;31.64;96104.28;5125520;27;20031;-85
2023/06/29 08:18:06;;;;;;;2.08;1.55;;;;;;;33.36;31.66;96097.00;5090173;28;20093;-84
2023/06/29 08:20:31;;;;;;;4.15;1.95;;;;;;;33.36;31.36;96100.53;5098678;28;20007;-85
2023/06/29 08:22:57;;;;;;;4.63;1.92;;;;;;;34.08;29.92;96098.84;5133598;27;20030;-84
2023/06/29 08:25:22;;;;;;;4.80;1.90;;;;;;;32.37;31.39;96097.41;5111452;28;20039;-84
2023/06/29 08:27:49;;;;;;;5.93;1.60;;;;;;;34.53;29.83;96087.78;5082693;28;20019;-84
2023/06/29 08:30:15;;;;;;;4.70;2.10;;;;;;;33.87;30.69;96091.16;5100605;28;20027;-85
2023/06/29 08:32:43;;;;;;;4.10;1.50;;;;;;;33.85;30.49;96092.56;5100252;28;20657;-85
2023/06/29 08:35:08;;;;;;;5.88;1.98;;;;;;;35.00;28.43;96093.53;5079508;28;20015;-84
2023/06/29 08:37:34;;;;;;;4.72;2.00;;;;;;;35.48;28.44;96092.59;5097924;28;20449;-85
2023/06/29 08:40:22;;;;;;;3.35;1.65;;;;;;;35.69;27.88;96088.09;5096247;28;20177;-85
2023/06/29 08:42:47;;;;;;;3.83;1.73;;;;;;;34.18;29.84;96084.91;5099063;28;20035;-83
2023/06/29 08:45:13;;;;;;;2.92;1.70;;;;;;;34.19;29.63;96089.25;5097109;27;20477;-85
2023/06/29 08:47:40;;;;;;;4.55;2.13;;;;;;;33.87;29.94;96088.41;5104612;28;20008;-85
2023/06/29 08:50:08;;;;;;;4.63;2.10;;;;;;;35.84;27.91;96078.56;5096896;28;20032;-85
2023/06/29 08:52:35;;;;;;;4.13;1.80;;;;;;;34.43;28.84;96097.03;5082952;28;20031;-84
2023/06/29 08:55:02;;;;;;;3.20;1.70;;;;;;;34.95;28.30;96089.81;5096410;27;20034;-84
2023/06/29 08:57:32;;;;;;;4.65;2.08;;;;;;;35.72;27.58;96075.72;5099795;27;20027;-85
2023/06/29 08:59:59;;;;;;;4.32;1.83;;;;;;;35.47;27.93;96093.72;5105850;28;20032;-84
2023/06/29 09:02:25;;;;;;;4.45;1.63;;;;;;;34.97;27.91;96082.09;5103861;28;20026;-85
2023/06/29 09:04:51;;;;;;;5.85;1.85;;;;;;;34.67;28.64;96089.28;5089622;27;20575;-85
2023/06/29 09:07:16;;;;;;;4.88;1.83;;;;;;;34.21;28.72;96078.81;5104001;28;20019;-85
2023/06/29 09:09:43;;;;;;;4.78;2.05;;;;;;;34.65;28.23;96077.88;5094772;28;20024;-85
2023/06/29 09:12:11;;;;;;;3.55;1.75;;;;;;;35.15;27.91;96072.03;5088032;27;20023;-85
2023/06/29 09:14:45;;;;;;;4.82;1.58;;;;;;;35.43;27.67;96077.16;5103658;28;20034;-85
2023/06/29 09:17:16;;;;;;;5.95;2.28;;;;;;;34.71;28.40;96078.53;5070666;28;20659;-85
2023/06/29 09:19:55;;;;;;;3.72;1.73;;;;;;;34.88;27.24;96072.31;5095841;28;20027;-85
2023/06/29 09:22:21;;;;;;;5.47;1.80;;;;;;;35.68;27.51;96064.59;5103942;27;20723;-85
2023/06/29 09:24:48;;;;;;;5.05;1.70;;;;;;;36.30;26.93;96072.34;5091900;28;20367;-86
2023/06/29 09:27:14;;;;;;;3.85;1.67;;;;;;;36.60;26.28;96055.94;5085050;27;20059;-85
2023/06/29 09:29:39;;;;;;;5.40;2.20;;;;;;;36.24;26.93;96057.22;5119531;27;20031;-85
2023/06/29 09:32:12;;;;;;;6.10;2.10;;;;;;;35.76;27.39;96061.06;5078785;27;20023;-85
2023/06/29 09:34:44;;;;;;;3.13;1.70;;;;;;;35.34;27.13;96071.69;5096596;28;20527;-85
2023/06/29 09:37:18;;;;;;;4.43;1.93;;;;;;;37.69;25.59;96056.91;5110211;28;20027;-84
2023/06/29 09:39:56;;;;;;;5.47;2.00;;;;;;;36.89;25.71;96057.03;5103577;27;20810;-85
2023/06/29 09:42:23;;;;;;;6.10;2.17;;;;;;;34.77;27.21;96069.03;5104920;27;20114;-85
2023/06/29 09:44:49;;;;;;;3.72;1.60;;;;;;;34.25;28.21;96077.06;5093786;27;20091;-85
2023/06/29 09:47:14;;;;;;;4.78;2.13;;;;;;;34.44;28.17;96066.72;5121975;27;20472;-85
2023/06/29 09:49:44;;;;;;;3.40;1.92;;;;;;;36.49;26.65;96055.53;5081246;28;20381;-85
2023/06/29 09:52:10;;;;;;;3.33;1.70;;;;;;;37.22;26.29;96054.41;5085144;27;20031;-86
2023/06/29 09:54:36;;;;;;;4.53;2.08;;;;;;;37.22;25.76;96054.41;5125646;27;20499;-85
2023/06/29 09:57:07;;;;;;;2.50;1.67;;;;;;;35.88;26.97;96052.16;5124603;27;20027;-85
2023/06/29 09:59:40;;;;;;;6.28;2.38;;;;;;;37.56;25.48;96047.03;5093464;27;20023;-85
2023/06/29 10:02:09;;;;;;;4.50;2.05;;;;;;;36.29;26.48;96040.63;5106554;27;20079;-84
2023/06/29 10:04:42;;;;;;;4.93;1.83;;;;;;;34.78;28.26;96050.75;5086783;28;20038;-85
2023/06/29 10:07:18;;;;;;;3.88;1.85;;;;;;;33.81;28.77;96058.84;5088018;27;20023;-85
2023/06/29 10:09:47;;;;;;;3.42;1.80;;;;;;;36.86;26.94;96039.34;5107516;28;20062;-85
2023/06/29 10:12:14;;;;;;;3.47;1.90;;;;;;;36.13;26.03;96046.97;5087542;27;20032;-84
2023/06/29 10:14:43;;;;;;;3.72;1.77;;;;;;;36.54;26.11;96040.84;5099576;28;20454;-85
2023/06/29 10:17:16;;;;;;;3.92;1.70;;;;;;;36.92;26.33;96042.69;5094738;28;20030;-85
2023/06/29 10:19:44;;;;;;;3.67;1.83;;;;;;;36.94;25.61;96045.91;5114947;27;20043;-84
2023/06/29 10:22:13;;;;;;;3.72;2.00;;;;;;;37.55;25.83;96038.00;5088351;28;20019;-85
2023/06/29 10:24:43;;;;;;;3.53;1.95;;;;;;;38.16;24.22;96040.09;5101439;27;20110;-84
2023/06/29 10:27:11;;;;;;;4.65;2.03;;;;;;;38.77;24.22;96044.78;5151664;27;20038;-85
2023/06/29 10:29:48;;;;;;;4.45;1.58;;;;;;;39.26;24.29;96025.47;5121204;28;20035;-84
2023/06/29 10:32:30;;;;;;;2.85;1.85;;;;;;;38.81;24.25;96034.75;5114240;28;20008;-85
2023/06/29 10:35:11;;;;;;;4.28;1.95;;;;;;;37.38;25.54;96032.66;5105763;27;20031;-85
2023/06/29 10:37:41;;;;;;;5.18;2.60;;;;;;;37.19;25.84;96020.25;5091908;28;20019;-85
2023/06/29 10:40:16;;;;;;;6.57;2.15;;;;;;;36.87;26.15;96018.22;5093948;28;20023;-85
2023/06/29 10:42:42;;;;;;;3.28;1.92;;;;;;;37.61;25.81;96014.72;5101645;27;20045;-84
2023/06/29 10:45:17;;;;;;;2.55;1.70;;;;;;;36.77;27.05;96022.16;5122228;27;20468;-84
2023/06/29 10:47:43;;;;;;;4.15;1.30;;;;;;;37.02;26.44;96017.63;5098113;28;20024;-85
2023/06/29 10:50:08;;;;;;;3.08;1.50;;;;;;;36.68;27.57;96021.41;5093547;28;20026;-84
2023/06/29 10:52:35;;;;;;;2.88;1.65;;;;;;;36.87;27.46;96016.28;5084883;28;20023;-84
2023/06/29 10:55:17;;;;;;;3.60;1.90;;;;;;;35.31;28.21;96014.94;5088583;28;20031;-85
2023/06/29 10:58:14;;;;;;;3.75;2.03;;;;;;;34.97;28.70;96019.25;5095800;27;20438;-83
2023/06/29 11:00:40;;;;;;;4.60;2.38;;;;;;;35.26;28.38;96017.84;5083815;27;20035;-85
2023/06/29 11:03:09;;;;;;;3.80;1.65;;;;;;;35.64;28.06;96014.41;5122392;27;20016;-85
2023/06/29 11:05:35;;;;;;;4.80;1.73;;;;;;;36.18;27.76;96008.44;5077769;27;20130;-85
2023/06/29 11:08:01;;;;;;;4.07;2.00;;;;;;;35.83;27.39;96012.09;5090341;28;20549;-84
2023/06/29 11:10:28;;;;;;;3.78;2.15;;;;;;;35.45;28.33;96008.47;5080310;27;20473;-85
2023/06/29 11:12:54;;;;;;;4.07;1.85;;;;;;;34.91;28.83;96017.00;5104620;27;20399;-85
2023/06/29 11:15:21;;;;;;;2.95;1.73;;;;;;;35.05;28.87;96014.97;5117829;27;20035;-85
2023/06/29 11:17:50;;;;;;;3.67;1.75;;;;;;;35.77;26.91;96002.47;5075911;28;20032;-85
2023/06/29 11:20:20;;;;;;;2.72;1.70;;;;;;;35.97;27.74;96011.09;5081870;28;20020;-85
2023/06/29 11:22:48;;;;;;;3.65;1.90;;;;;;;35.98;27.33;96015.44;5078935;28;20024;-85
2023/06/29 11:25:16;;;;;;;4.22;2.10;;;;;;;36.69;26.87;95999.16;5071623;28;20016;-85
2023/06/29 11:27:43;;;;;;;4.57;2.00;;;;;;;36.72;27.16;96006.72;5076624;28;20020;-84
2023/06/29 11:30:10;;;;;;;4.90;2.15;;;;;;;35.19;28.63;96006.59;5080155;27;20020;-85